sensor_id;sensor_type;location;lat;lon;timestamp;temperature;humidity
42479;DHT22;28110;47.080;9.476;2024-01-10T00:01:32;-1.20;99.90
42479;DHT22;28110;47.080;9.476;2024-01-10T00:03:58;-1.20;99.90
42479;DHT22;28110;47.080;9.476;2024-01-10T00:06:24;-1.20;99.90
42479;DHT22;28110;47.080;9.476;2024-01-10T00:08:50;-1.30;99.90
42479;DHT22;28110;47.080;9.476;2024-01-10T00:11:15;-1.30;99.90
42479;DHT22;28110;47.080;9.476;2024-01-10T00:13:41;-1.30;99.90
42479;DHT22;28110;47.080;9.476;2024-01-10T00:16:07;-1.20;99.90
42479;DHT22;28110;47.080;9.476;2024-01-10T00:18:33;-1.20;99.90
42479;DHT22;28110;47.080;9.476;2024-01-10T00:20:59;-1.20;99.90
42479;DHT22;28110;47.080;9.476;2024-01-10T00:23:24;-1.20;99.90
42479;DHT22;28110;47.080;9.476;2024-01-10T00:25:50;-1.20;99.90
42479;DHT22;28110;47.080;9.476;2024-01-10T00:28:15;-1.20;99.90
42479;DHT22;28110;47.080;9.476;2024-01-10T00:30:45;-1.20;99.90
42479;DHT22;28110;47.080;9.476;2024-01-10T00:33:12;-1.20;99.90
42479;DHT22;28110;47.080;9.476;2024-01-10T00:35:38;-1.20;99.90
42479;DHT22;28110;47.080;9.476;2024-01-10T00:38:04;-1.20;99.90
42479;DHT22;28110;47.080;9.476;2024-01-10T00:40:29;-1.20;99.90
42479;DHT22;28110;47.080;9.476;2024-01-10T00:42:55;-1.20;99.90
42479;DHT22;28110;47.080;9.476;2024-01-10T00:45:20;-1.20;99.90
42479;DHT22;28110;47.080;9.476;2024-01-10T00:47:48;-1.20;99.90
42479;DHT22;28110;47.080;9.476;2024-01-10T00:50:13;-1.20;99.90
42479;DHT22;28110;47.080;9.476;2024-01-10T00:52:39;-1.20;99.90
42479;DHT22;28110;47.080;9.476;2024-01-10T00:55:04;-1.20;99.90
42479;DHT22;28110;47.080;9.476;2024-01-10T00:57:30;-1.20;99.90
42479;DHT22;28110;47.080;9.476;2024-01-10T00:59:56;-1.20;99.90
42479;DHT22;28110;47.080;9.476;2024-01-10T01:02:21;-1.20;99.90
42479;DHT22;28110;47.080;9.476;2024-01-10T01:04:47;-1.20;99.90
42479;DHT22;28110;47.080;9.476;2024-01-10T01:07:12;-1.20;99.90
42479;DHT22;28110;47.080;9.476;2024-01-10T01:09:38;-1.20;99.90
42479;DHT22;28110;47.080;9.476;2024-01-10T01:12:03;-1.30;99.90
42479;DHT22;28110;47.080;9.476;2024-01-10T01:14:29;-1.30;99.90
42479;DHT22;28110;47.080;9.476;2024-01-10T01:16:54;-1.30;99.90
42479;DHT22;28110;47.080;9.476;2024-01-10T01:19:20;-1.30;99.90
42479;DHT22;28110;47.080;9.476;2024-01-10T01:21:45;-1.30;99.90
42479;DHT22;28110;47.080;9.476;2024-01-10T01:24:11;-1.30;99.90
42479;DHT22;28110;47.080;9.476;2024-01-10T01:26:37;-1.30;99.90
42479;DHT22;28110;47.080;9.476;2024-01-10T01:29:02;-1.30;99.90
42479;DHT22;28110;47.080;9.476;2024-01-10T01:31:28;-1.30;99.90
42479;DHT22;28110;47.080;9.476;2024-01-10T01:33:53;-1.30;99.90
42479;DHT22;28110;47.080;9.476;2024-01-10T01:36:19;-1.30;99.90
42479;DHT22;28110;47.080;9.476;2024-01-10T01:38:44;-1.30;99.90
42479;DHT22;28110;47.080;9.476;2024-01-10T01:41:10;-1.30;99.90
42479;DHT22;28110;47.080;9.476;2024-01-10T01:43:35;-1.20;99.90
42479;DHT22;28110;47.080;9.476;2024-01-10T01:46:02;-1.30;99.90
42479;DHT22;28110;47.080;9.476;2024-01-10T01:48:28;-1.20;99.90
42479;DHT22;28110;47.080;9.476;2024-01-10T01:50:58;-1.30;99.90
42479;DHT22;28110;47.080;9.476;2024-01-10T01:53:25;-1.20;99.90
42479;DHT22;28110;47.080;9.476;2024-01-10T01:55:51;-1.20;99.90
42479;DHT22;28110;47.080;9.476;2024-01-10T01:58:17;-1.30;99.90
42479;DHT22;28110;47.080;9.476;2024-01-10T02:00:44;-1.30;99.90
42479;DHT22;28110;47.080;9.476;2024-01-10T02:03:10;-1.30;99.90
42479;DHT22;28110;47.080;9.476;2024-01-10T02:05:36;-1.40;99.90
42479;DHT22;28110;47.080;9.476;2024-01-10T02:08:02;-1.30;99.90
42479;DHT22;28110;47.080;9.476;2024-01-10T02:10:28;-1.30;99.90
42479;DHT22;28110;47.080;9.476;2024-01-10T02:12:53;-1.30;99.90
42479;DHT22;28110;47.080;9.476;2024-01-10T02:15:19;-1.40;99.90
42479;DHT22;28110;47.080;9.476;2024-01-10T02:17:45;-1.30;99.90
42479;DHT22;28110;47.080;9.476;2024-01-10T02:20:15;-1.30;99.90
42479;DHT22;28110;47.080;9.476;2024-01-10T02:22:44;-1.30;99.90
42479;DHT22;28110;47.080;9.476;2024-01-10T02:25:10;-1.30;99.90
42479;DHT22;28110;47.080;9.476;2024-01-10T02:27:36;-1.30;99.90
42479;DHT22;28110;47.080;9.476;2024-01-10T02:30:04;-1.30;99.90
42479;DHT22;28110;47.080;9.476;2024-01-10T02:32:31;-1.40;99.90
42479;DHT22;28110;47.080;9.476;2024-01-10T02:34:56;-1.30;99.90
42479;DHT22;28110;47.080;9.476;2024-01-10T02:37:22;-1.30;99.90
42479;DHT22;28110;47.080;9.476;2024-01-10T02:39:48;-1.30;99.90
42479;DHT22;28110;47.080;9.476;2024-01-10T02:42:14;-1.30;99.90
42479;DHT22;28110;47.080;9.476;2024-01-10T02:44:39;-1.40;99.90
42479;DHT22;28110;47.080;9.476;2024-01-10T02:47:07;-1.40;99.90
42479;DHT22;28110;47.080;9.476;2024-01-10T02:49:33;-1.50;99.90
42479;DHT22;28110;47.080;9.476;2024-01-10T02:51:59;-1.50;99.90
42479;DHT22;28110;47.080;9.476;2024-01-10T02:54:25;-1.60;99.90
42479;DHT22;28110;47.080;9.476;2024-01-10T02:56:50;-1.60;99.90
42479;DHT22;28110;47.080;9.476;2024-01-10T02:59:16;-1.60;99.90
42479;DHT22;28110;47.080;9.476;2024-01-10T03:01:42;-1.70;99.90
42479;DHT22;28110;47.080;9.476;2024-01-10T03:04:07;-1.70;99.90
42479;DHT22;28110;47.080;9.476;2024-01-10T03:06:33;-1.70;99.90
42479;DHT22;28110;47.080;9.476;2024-01-10T03:08:58;-1.70;99.90
42479;DHT22;28110;47.080;9.476;2024-01-10T03:11:24;-1.70;99.90
42479;DHT22;28110;47.080;9.476;2024-01-10T03:14:07;-1.80;99.90
42479;DHT22;28110;47.080;9.476;2024-01-10T03:16:33;-1.80;99.90
42479;DHT22;28110;47.080;9.476;2024-01-10T03:18:59;-1.80;99.90
42479;DHT22;28110;47.080;9.476;2024-01-10T03:21:25;-1.80;99.90
42479;DHT22;28110;47.080;9.476;2024-01-10T03:23:55;-1.80;99.90
42479;DHT22;28110;47.080;9.476;2024-01-10T03:26:20;-1.80;99.90
42479;DHT22;28110;47.080;9.476;2024-01-10T03:28:46;-1.90;99.90
42479;DHT22;28110;47.080;9.476;2024-01-10T03:31:11;-1.90;99.90
42479;DHT22;28110;47.080;9.476;2024-01-10T03:33:37;-1.90;99.90
42479;DHT22;28110;47.080;9.476;2024-01-10T03:36:03;-1.80;99.90
42479;DHT22;28110;47.080;9.476;2024-01-10T03:38:29;-1.90;99.90
42479;DHT22;28110;47.080;9.476;2024-01-10T03:40:54;-1.90;99.90
42479;DHT22;28110;47.080;9.476;2024-01-10T03:43:20;-1.90;99.90
42479;DHT22;28110;47.080;9.476;2024-01-10T03:45:45;-2.00;99.90
42479;DHT22;28110;47.080;9.476;2024-01-10T03:48:11;-2.00;99.90
42479;DHT22;28110;47.080;9.476;2024-01-10T03:50:36;-2.10;99.90
42479;DHT22;28110;47.080;9.476;2024-01-10T03:53:02;-2.10;99.90
42479;DHT22;28110;47.080;9.476;2024-01-10T03:55:28;-2.10;99.90
42479;DHT22;28110;47.080;9.476;2024-01-10T03:57:53;-2.10;99.90
42479;DHT22;28110;47.080;9.476;2024-01-10T04:00:19;-2.10;99.90
42479;DHT22;28110;47.080;9.476;2024-01-10T04:02:44;-2.10;99.90
42479;DHT22;28110;47.080;9.476;2024-01-10T04:05:10;-2.10;99.90
42479;DHT22;28110;47.080;9.476;2024-01-10T04:07:39;-2.10;99.90
42479;DHT22;28110;47.080;9.476;2024-01-10T04:10:05;-2.10;99.90
42479;DHT22;28110;47.080;9.476;2024-01-10T04:12:32;-2.20;99.90
42479;DHT22;28110;47.080;9.476;2024-01-10T04:14:58;-2.20;99.90
42479;DHT22;28110;47.080;9.476;2024-01-10T04:17:23;-2.10;99.90
42479;DHT22;28110;47.080;9.476;2024-01-10T04:19:49;-2.20;99.90
42479;DHT22;28110;47.080;9.476;2024-01-10T04:22:14;-2.20;99.90
42479;DHT22;28110;47.080;9.476;2024-01-10T04:24:40;-2.20;99.90
42479;DHT22;28110;47.080;9.476;2024-01-10T04:27:05;-2.20;99.90
42479;DHT22;28110;47.080;9.476;2024-01-10T04:29:31;-2.20;99.90
42479;DHT22;28110;47.080;9.476;2024-01-10T04:31:56;-2.20;99.90
42479;DHT22;28110;47.080;9.476;2024-01-10T04:34:22;-2.20;99.90
42479;DHT22;28110;47.080;9.476;2024-01-10T04:36:48;-2.20;99.90
42479;DHT22;28110;47.080;9.476;2024-01-10T04:39:14;-2.30;99.90
42479;DHT22;28110;47.080;9.476;2024-01-10T04:41:40;-2.20;99.90
42479;DHT22;28110;47.080;9.476;2024-01-10T04:44:05;-2.30;99.90
42479;DHT22;28110;47.080;9.476;2024-01-10T04:46:31;-2.30;99.90
42479;DHT22;28110;47.080;9.476;2024-01-10T04:48:56;-2.30;99.90
42479;DHT22;28110;47.080;9.476;2024-01-10T04:51:22;-2.30;99.90
42479;DHT22;28110;47.080;9.476;2024-01-10T04:53:47;-2.30;99.90
42479;DHT22;28110;47.080;9.476;2024-01-10T04:56:13;-2.40;99.90
42479;DHT22;28110;47.080;9.476;2024-01-10T04:58:38;-2.40;99.90
42479;DHT22;28110;47.080;9.476;2024-01-10T05:01:04;-2.50;99.90
42479;DHT22;28110;47.080;9.476;2024-01-10T05:03:29;-2.50;99.90
42479;DHT22;28110;47.080;9.476;2024-01-10T05:05:55;-2.50;99.90
42479;DHT22;28110;47.080;9.476;2024-01-10T05:08:21;-2.50;99.90
42479;DHT22;28110;47.080;9.476;2024-01-10T05:10:46;-2.50;99.90
42479;DHT22;28110;47.080;9.476;2024-01-10T05:13:12;-2.50;99.90
42479;DHT22;28110;47.080;9.476;2024-01-10T05:15:38;-2.50;99.90
42479;DHT22;28110;47.080;9.476;2024-01-10T05:18:04;-2.50;99.90
42479;DHT22;28110;47.080;9.476;2024-01-10T05:20:29;-2.50;99.90
42479;DHT22;28110;47.080;9.476;2024-01-10T05:22:55;-2.60;99.90
42479;DHT22;28110;47.080;9.476;2024-01-10T05:25:24;-2.60;99.90
42479;DHT22;28110;47.080;9.476;2024-01-10T05:27:50;-2.60;99.90
42479;DHT22;28110;47.080;9.476;2024-01-10T05:30:15;-2.70;99.90
42479;DHT22;28110;47.080;9.476;2024-01-10T05:32:41;-2.70;99.90
42479;DHT22;28110;47.080;9.476;2024-01-10T05:35:07;-2.70;99.90
42479;DHT22;28110;47.080;9.476;2024-01-10T05:37:33;-2.60;99.90
42479;DHT22;28110;47.080;9.476;2024-01-10T05:39:58;-2.60;99.90
42479;DHT22;28110;47.080;9.476;2024-01-10T05:42:24;-2.60;99.90
42479;DHT22;28110;47.080;9.476;2024-01-10T05:44:50;-2.50;99.90
42479;DHT22;28110;47.080;9.476;2024-01-10T05:47:15;-2.40;99.90
42479;DHT22;28110;47.080;9.476;2024-01-10T05:49:41;-2.40;99.90
42479;DHT22;28110;47.080;9.476;2024-01-10T05:52:08;-2.40;99.90
42479;DHT22;28110;47.080;9.476;2024-01-10T05:54:33;-2.40;99.90
42479;DHT22;28110;47.080;9.476;2024-01-10T05:56:59;-2.30;99.90
42479;DHT22;28110;47.080;9.476;2024-01-10T05:59:26;-2.30;99.90
42479;DHT22;28110;47.080;9.476;2024-01-10T06:01:52;-2.40;99.90
42479;DHT22;28110;47.080;9.476;2024-01-10T06:04:17;-2.30;99.90
42479;DHT22;28110;47.080;9.476;2024-01-10T06:06:43;-2.30;99.90
42479;DHT22;28110;47.080;9.476;2024-01-10T06:09:10;-2.30;99.90
42479;DHT22;28110;47.080;9.476;2024-01-10T06:11:43;-2.30;99.90
42479;DHT22;28110;47.080;9.476;2024-01-10T06:14:09;-2.20;99.90
42479;DHT22;28110;47.080;9.476;2024-01-10T06:16:34;-2.20;99.90
42479;DHT22;28110;47.080;9.476;2024-01-10T06:19:00;-2.10;99.90
42479;DHT22;28110;47.080;9.476;2024-01-10T06:21:26;-2.10;99.90
42479;DHT22;28110;47.080;9.476;2024-01-10T06:23:51;-2.10;99.90
42479;DHT22;28110;47.080;9.476;2024-01-10T06:26:17;-2.10;99.90
42479;DHT22;28110;47.080;9.476;2024-01-10T06:28:42;-2.10;99.90
42479;DHT22;28110;47.080;9.476;2024-01-10T06:31:08;-2.10;99.90
42479;DHT22;28110;47.080;9.476;2024-01-10T06:33:33;-2.10;99.90
42479;DHT22;28110;47.080;9.476;2024-01-10T06:35:59;-2.10;99.90
42479;DHT22;28110;47.080;9.476;2024-01-10T06:38:24;-2.10;99.90
42479;DHT22;28110;47.080;9.476;2024-01-10T06:40:50;-2.10;99.90
42479;DHT22;28110;47.080;9.476;2024-01-10T06:43:16;-2.10;99.90
42479;DHT22;28110;47.080;9.476;2024-01-10T06:45:41;-2.00;99.90
42479;DHT22;28110;47.080;9.476;2024-01-10T06:48:07;-2.00;99.90
42479;DHT22;28110;47.080;9.476;2024-01-10T06:50:33;-2.00;99.90
42479;DHT22;28110;47.080;9.476;2024-01-10T06:52:59;-2.00;99.90
42479;DHT22;28110;47.080;9.476;2024-01-10T06:55:25;-2.10;99.90
42479;DHT22;28110;47.080;9.476;2024-01-10T06:57:51;-2.00;99.90
42479;DHT22;28110;47.080;9.476;2024-01-10T07:00:20;-2.00;99.90
42479;DHT22;28110;47.080;9.476;2024-01-10T07:02:46;-2.20;99.90
42479;DHT22;28110;47.080;9.476;2024-01-10T07:05:12;-2.30;99.90
42479;DHT22;28110;47.080;9.476;2024-01-10T07:07:37;-2.30;99.90
42479;DHT22;28110;47.080;9.476;2024-01-10T07:10:04;-2.30;99.90
42479;DHT22;28110;47.080;9.476;2024-01-10T07:12:31;-2.20;99.90
42479;DHT22;28110;47.080;9.476;2024-01-10T07:14:57;-2.20;99.90
42479;DHT22;28110;47.080;9.476;2024-01-10T07:17:22;-2.10;99.90
42479;DHT22;28110;47.080;9.476;2024-01-10T07:19:48;-2.10;99.90
42479;DHT22;28110;47.080;9.476;2024-01-10T07:22:14;-2.10;99.90
42479;DHT22;28110;47.080;9.476;2024-01-10T07:24:39;-2.00;99.90
42479;DHT22;28110;47.080;9.476;2024-01-10T07:27:05;-2.00;99.90
42479;DHT22;28110;47.080;9.476;2024-01-10T07:29:32;-2.00;99.90
42479;DHT22;28110;47.080;9.476;2024-01-10T07:31:57;-2.00;99.90
42479;DHT22;28110;47.080;9.476;2024-01-10T07:34:23;-2.00;99.90
42479;DHT22;28110;47.080;9.476;2024-01-10T07:36:48;-2.00;99.90
42479;DHT22;28110;47.080;9.476;2024-01-10T07:39:14;-2.10;99.90
42479;DHT22;28110;47.080;9.476;2024-01-10T07:41:46;-2.10;99.90
42479;DHT22;28110;47.080;9.476;2024-01-10T07:44:11;-2.10;99.90
42479;DHT22;28110;47.080;9.476;2024-01-10T07:46:37;-2.10;99.90
42479;DHT22;28110;47.080;9.476;2024-01-10T07:49:03;-2.10;99.90
42479;DHT22;28110;47.080;9.476;2024-01-10T07:51:30;-2.10;99.90
42479;DHT22;28110;47.080;9.476;2024-01-10T07:53:56;-2.10;99.90
42479;DHT22;28110;47.080;9.476;2024-01-10T07:56:21;-2.10;99.90
42479;DHT22;28110;47.080;9.476;2024-01-10T07:58:47;-2.10;99.90
42479;DHT22;28110;47.080;9.476;2024-01-10T08:01:14;-2.10;99.90
42479;DHT22;28110;47.080;9.476;2024-01-10T08:03:40;-2.00;99.90
42479;DHT22;28110;47.080;9.476;2024-01-10T08:06:06;-2.10;99.90
42479;DHT22;28110;47.080;9.476;2024-01-10T08:08:31;-2.10;99.90
42479;DHT22;28110;47.080;9.476;2024-01-10T08:10:57;-2.00;99.90
42479;DHT22;28110;47.080;9.476;2024-01-10T08:13:23;-2.00;99.90
42479;DHT22;28110;47.080;9.476;2024-01-10T08:15:48;-2.10;99.90
42479;DHT22;28110;47.080;9.476;2024-01-10T08:18:14;-2.10;99.90
42479;DHT22;28110;47.080;9.476;2024-01-10T08:20:40;-2.00;99.90
42479;DHT22;28110;47.080;9.476;2024-01-10T08:23:05;-2.00;99.90
42479;DHT22;28110;47.080;9.476;2024-01-10T08:25:31;-1.90;99.90
42479;DHT22;28110;47.080;9.476;2024-01-10T08:27:56;-1.90;99.90
42479;DHT22;28110;47.080;9.476;2024-01-10T08:30:23;-1.80;99.90
42479;DHT22;28110;47.080;9.476;2024-01-10T08:32:49;-1.70;99.90
42479;DHT22;28110;47.080;9.476;2024-01-10T08:35:15;-1.70;99.90
42479;DHT22;28110;47.080;9.476;2024-01-10T08:37:41;-1.70;99.90
42479;DHT22;28110;47.080;9.476;2024-01-10T08:40:09;-1.60;99.90
42479;DHT22;28110;47.080;9.476;2024-01-10T08:42:37;-1.60;99.90
42479;DHT22;28110;47.080;9.476;2024-01-10T08:45:04;-1.50;99.90
42479;DHT22;28110;47.080;9.476;2024-01-10T08:47:29;-1.50;99.90
42479;DHT22;28110;47.080;9.476;2024-01-10T08:49:58;-1.40;99.90
42479;DHT22;28110;47.080;9.476;2024-01-10T08:52:24;-1.40;99.90
42479;DHT22;28110;47.080;9.476;2024-01-10T08:54:49;-1.40;99.90
42479;DHT22;28110;47.080;9.476;2024-01-10T08:57:15;-1.40;99.90
42479;DHT22;28110;47.080;9.476;2024-01-10T08:59:43;-1.40;99.90
42479;DHT22;28110;47.080;9.476;2024-01-10T09:02:09;-1.40;99.90
42479;DHT22;28110;47.080;9.476;2024-01-10T09:04:35;-1.50;99.90
42479;DHT22;28110;47.080;9.476;2024-01-10T09:07:00;-1.50;99.90
42479;DHT22;28110;47.080;9.476;2024-01-10T09:09:26;-1.40;99.90
42479;DHT22;28110;47.080;9.476;2024-01-10T09:11:51;-1.30;99.90
42479;DHT22;28110;47.080;9.476;2024-01-10T09:14:17;-1.20;99.90
42479;DHT22;28110;47.080;9.476;2024-01-10T09:16:42;-1.10;99.90
42479;DHT22;28110;47.080;9.476;2024-01-10T09:19:08;-1.00;99.90
42479;DHT22;28110;47.080;9.476;2024-01-10T09:21:35;-1.00;99.90
42479;DHT22;28110;47.080;9.476;2024-01-10T09:24:00;-1.10;99.90
42479;DHT22;28110;47.080;9.476;2024-01-10T09:26:26;-1.10;99.90
42479;DHT22;28110;47.080;9.476;2024-01-10T09:28:51;-1.00;99.90
42479;DHT22;28110;47.080;9.476;2024-01-10T09:31:17;-1.00;99.90
42479;DHT22;28110;47.080;9.476;2024-01-10T09:33:42;-0.90;99.90
42479;DHT22;28110;47.080;9.476;2024-01-10T09:36:08;-0.80;99.90
42479;DHT22;28110;47.080;9.476;2024-01-10T09:38:37;-0.80;99.90
42479;DHT22;28110;47.080;9.476;2024-01-10T09:41:03;-0.70;99.90
42479;DHT22;28110;47.080;9.476;2024-01-10T09:43:32;-0.60;99.90
42479;DHT22;28110;47.080;9.476;2024-01-10T09:46:02;-0.50;99.90
42479;DHT22;28110;47.080;9.476;2024-01-10T09:48:28;-0.40;99.90
42479;DHT22;28110;47.080;9.476;2024-01-10T09:50:55;-0.40;99.90
42479;DHT22;28110;47.080;9.476;2024-01-10T09:53:25;-0.30;99.90
42479;DHT22;28110;47.080;9.476;2024-01-10T09:55:55;-0.30;99.90
42479;DHT22;28110;47.080;9.476;2024-01-10T09:58:23;-0.20;99.90
42479;DHT22;28110;47.080;9.476;2024-01-10T10:00:50;-0.10;99.90
42479;DHT22;28110;47.080;9.476;2024-01-10T10:03:17;-0.20;99.90
42479;DHT22;28110;47.080;9.476;2024-01-10T10:05:43;-0.20;99.90
42479;DHT22;28110;47.080;9.476;2024-01-10T10:08:11;-0.10;99.90
42479;DHT22;28110;47.080;9.476;2024-01-10T10:10:37;-0.10;99.90
42479;DHT22;28110;47.080;9.476;2024-01-10T10:13:09;0.00;99.90
42479;DHT22;28110;47.080;9.476;2024-01-10T10:15:36;0.00;99.90
42479;DHT22;28110;47.080;9.476;2024-01-10T10:18:02;0.00;99.90
42479;DHT22;28110;47.080;9.476;2024-01-10T10:20:29;0.00;99.90
42479;DHT22;28110;47.080;9.476;2024-01-10T10:23:08;0.00;99.90
42479;DHT22;28110;47.080;9.476;2024-01-10T10:25:43;0.10;99.90
42479;DHT22;28110;47.080;9.476;2024-01-10T10:28:08;0.10;99.90
42479;DHT22;28110;47.080;9.476;2024-01-10T10:30:34;0.20;99.90
42479;DHT22;28110;47.080;9.476;2024-01-10T10:33:02;0.30;99.90
42479;DHT22;28110;47.080;9.476;2024-01-10T10:35:28;0.30;99.90
42479;DHT22;28110;47.080;9.476;2024-01-10T10:37:53;0.30;99.90
42479;DHT22;28110;47.080;9.476;2024-01-10T10:40:20;0.30;99.90
42479;DHT22;28110;47.080;9.476;2024-01-10T10:42:47;0.30;99.90
42479;DHT22;28110;47.080;9.476;2024-01-10T10:45:17;0.30;99.90
42479;DHT22;28110;47.080;9.476;2024-01-10T10:47:45;0.20;99.90
42479;DHT22;28110;47.080;9.476;2024-01-10T10:50:13;0.20;99.90
42479;DHT22;28110;47.080;9.476;2024-01-10T10:52:45;0.10;99.90
42479;DHT22;28110;47.080;9.476;2024-01-10T10:55:14;0.10;99.90
42479;DHT22;28110;47.080;9.476;2024-01-10T10:57:45;0.20;99.90
42479;DHT22;28110;47.080;9.476;2024-01-10T11:00:13;0.20;99.90
42479;DHT22;28110;47.080;9.476;2024-01-10T11:02:40;0.20;99.90
42479;DHT22;28110;47.080;9.476;2024-01-10T11:05:08;0.20;99.90
42479;DHT22;28110;47.080;9.476;2024-01-10T11:07:40;0.20;99.90
42479;DHT22;28110;47.080;9.476;2024-01-10T11:10:09;0.30;99.90
42479;DHT22;28110;47.080;9.476;2024-01-10T11:12:44;0.30;99.90
42479;DHT22;28110;47.080;9.476;2024-01-10T11:24:04;0.30;99.90
42479;DHT22;28110;47.080;9.476;2024-01-10T11:26:32;0.30;99.90
42479;DHT22;28110;47.080;9.476;2024-01-10T11:28:58;0.30;99.90
42479;DHT22;28110;47.080;9.476;2024-01-10T11:31:30;0.30;99.90
42479;DHT22;28110;47.080;9.476;2024-01-10T11:34:00;0.40;99.90
42479;DHT22;28110;47.080;9.476;2024-01-10T11:36:26;0.40;99.90
42479;DHT22;28110;47.080;9.476;2024-01-10T11:41:29;0.40;99.90
42479;DHT22;28110;47.080;9.476;2024-01-10T11:46:44;0.50;99.90
42479;DHT22;28110;47.080;9.476;2024-01-10T11:49:12;0.60;99.90
42479;DHT22;28110;47.080;9.476;2024-01-10T11:51:42;0.50;99.90
42479;DHT22;28110;47.080;9.476;2024-01-10T11:54:08;0.50;99.90
42479;DHT22;28110;47.080;9.476;2024-01-10T11:56:43;0.60;99.90
42479;DHT22;28110;47.080;9.476;2024-01-10T11:59:11;0.60;99.90
42479;DHT22;28110;47.080;9.476;2024-01-10T12:01:39;0.60;99.90
42479;DHT22;28110;47.080;9.476;2024-01-10T12:04:05;0.60;99.90
42479;DHT22;28110;47.080;9.476;2024-01-10T12:06:32;0.70;99.90
42479;DHT22;28110;47.080;9.476;2024-01-10T12:08:58;0.70;99.90
42479;DHT22;28110;47.080;9.476;2024-01-10T12:11:25;0.70;99.90
42479;DHT22;28110;47.080;9.476;2024-01-10T12:13:50;0.70;99.90
42479;DHT22;28110;47.080;9.476;2024-01-10T12:16:16;0.70;99.90
42479;DHT22;28110;47.080;9.476;2024-01-10T12:18:43;0.80;99.90
42479;DHT22;28110;47.080;9.476;2024-01-10T12:21:09;0.80;99.90
42479;DHT22;28110;47.080;9.476;2024-01-10T12:23:38;0.80;99.90
42479;DHT22;28110;47.080;9.476;2024-01-10T12:26:07;0.80;99.90
42479;DHT22;28110;47.080;9.476;2024-01-10T12:28:37;0.90;99.90
42479;DHT22;28110;47.080;9.476;2024-01-10T12:31:06;0.90;99.90
42479;DHT22;28110;47.080;9.476;2024-01-10T12:33:38;0.90;99.90
42479;DHT22;28110;47.080;9.476;2024-01-10T12:36:11;0.90;99.90
42479;DHT22;28110;47.080;9.476;2024-01-10T12:38:40;0.90;99.90
42479;DHT22;28110;47.080;9.476;2024-01-10T12:41:06;1.00;99.90
42479;DHT22;28110;47.080;9.476;2024-01-10T12:43:34;0.90;99.90
42479;DHT22;28110;47.080;9.476;2024-01-10T12:46:07;1.00;99.90
42479;DHT22;28110;47.080;9.476;2024-01-10T12:48:34;1.00;99.90
42479;DHT22;28110;47.080;9.476;2024-01-10T12:51:02;1.00;99.90
42479;DHT22;28110;47.080;9.476;2024-01-10T12:53:34;1.00;99.90
42479;DHT22;28110;47.080;9.476;2024-01-10T12:56:00;1.00;99.90
42479;DHT22;28110;47.080;9.476;2024-01-10T12:58:27;1.00;99.90
42479;DHT22;28110;47.080;9.476;2024-01-10T13:00:52;1.10;99.90
42479;DHT22;28110;47.080;9.476;2024-01-10T13:03:18;1.10;99.90
42479;DHT22;28110;47.080;9.476;2024-01-10T13:05:44;1.10;99.90
42479;DHT22;28110;47.080;9.476;2024-01-10T13:08:09;1.10;99.90
42479;DHT22;28110;47.080;9.476;2024-01-10T13:10:37;1.10;99.90
42479;DHT22;28110;47.080;9.476;2024-01-10T13:13:03;1.20;99.90
42479;DHT22;28110;47.080;9.476;2024-01-10T13:15:28;1.20;99.90
42479;DHT22;28110;47.080;9.476;2024-01-10T13:17:54;1.20;99.90
42479;DHT22;28110;47.080;9.476;2024-01-10T13:20:20;1.20;99.90
42479;DHT22;28110;47.080;9.476;2024-01-10T13:22:45;1.20;99.90
42479;DHT22;28110;47.080;9.476;2024-01-10T13:25:11;1.20;99.90
42479;DHT22;28110;47.080;9.476;2024-01-10T13:27:37;1.20;99.90
42479;DHT22;28110;47.080;9.476;2024-01-10T13:30:03;1.20;99.90
42479;DHT22;28110;47.080;9.476;2024-01-10T13:32:29;1.20;99.90
42479;DHT22;28110;47.080;9.476;2024-01-10T13:34:55;1.20;99.90
42479;DHT22;28110;47.080;9.476;2024-01-10T13:37:20;1.20;99.90
42479;DHT22;28110;47.080;9.476;2024-01-10T13:39:46;1.20;99.90
42479;DHT22;28110;47.080;9.476;2024-01-10T13:42:12;1.30;99.90
42479;DHT22;28110;47.080;9.476;2024-01-10T13:44:37;1.30;99.90
42479;DHT22;28110;47.080;9.476;2024-01-10T13:47:04;1.30;99.90
42479;DHT22;28110;47.080;9.476;2024-01-10T13:49:29;1.30;99.90
42479;DHT22;28110;47.080;9.476;2024-01-10T13:51:55;1.30;99.90
42479;DHT22;28110;47.080;9.476;2024-01-10T13:54:21;1.30;99.90
42479;DHT22;28110;47.080;9.476;2024-01-10T13:56:47;1.30;99.90
42479;DHT22;28110;47.080;9.476;2024-01-10T13:59:13;1.30;99.90
42479;DHT22;28110;47.080;9.476;2024-01-10T14:01:38;1.30;99.90
42479;DHT22;28110;47.080;9.476;2024-01-10T14:04:05;1.20;99.90
42479;DHT22;28110;47.080;9.476;2024-01-10T14:06:30;1.20;99.90
42479;DHT22;28110;47.080;9.476;2024-01-10T14:08:56;1.20;99.90
42479;DHT22;28110;47.080;9.476;2024-01-10T14:11:23;1.20;99.90
42479;DHT22;28110;47.080;9.476;2024-01-10T14:13:49;1.20;99.90
42479;DHT22;28110;47.080;9.476;2024-01-10T14:16:15;1.20;99.90
42479;DHT22;28110;47.080;9.476;2024-01-10T14:18:40;1.20;99.90
42479;DHT22;28110;47.080;9.476;2024-01-10T14:21:06;1.10;99.90
42479;DHT22;28110;47.080;9.476;2024-01-10T14:23:32;1.10;99.90
42479;DHT22;28110;47.080;9.476;2024-01-10T14:26:00;1.10;99.90
42479;DHT22;28110;47.080;9.476;2024-01-10T14:28:26;1.10;99.90
42479;DHT22;28110;47.080;9.476;2024-01-10T14:30:51;1.10;99.90
42479;DHT22;28110;47.080;9.476;2024-01-10T14:33:17;1.10;99.90
42479;DHT22;28110;47.080;9.476;2024-01-10T14:35:42;1.10;99.90
42479;DHT22;28110;47.080;9.476;2024-01-10T14:38:08;1.10;99.90
42479;DHT22;28110;47.080;9.476;2024-01-10T14:40:33;1.00;99.90
42479;DHT22;28110;47.080;9.476;2024-01-10T14:42:59;1.00;99.90
42479;DHT22;28110;47.080;9.476;2024-01-10T14:45:24;1.00;99.90
42479;DHT22;28110;47.080;9.476;2024-01-10T14:47:50;1.00;99.90
42479;DHT22;28110;47.080;9.476;2024-01-10T14:50:15;1.10;99.90
42479;DHT22;28110;47.080;9.476;2024-01-10T14:52:41;1.00;99.90
42479;DHT22;28110;47.080;9.476;2024-01-10T14:55:07;1.00;99.90
42479;DHT22;28110;47.080;9.476;2024-01-10T14:57:33;1.00;99.90
42479;DHT22;28110;47.080;9.476;2024-01-10T14:59:59;1.00;99.90
42479;DHT22;28110;47.080;9.476;2024-01-10T15:02:25;1.00;99.90
42479;DHT22;28110;47.080;9.476;2024-01-10T15:04:50;1.00;99.90
42479;DHT22;28110;47.080;9.476;2024-01-10T15:07:16;1.00;99.90
42479;DHT22;28110;47.080;9.476;2024-01-10T15:09:44;1.00;99.90
42479;DHT22;28110;47.080;9.476;2024-01-10T15:12:10;1.00;99.90
42479;DHT22;28110;47.080;9.476;2024-01-10T15:14:36;0.90;99.90
42479;DHT22;28110;47.080;9.476;2024-01-10T15:17:06;0.90;99.90
42479;DHT22;28110;47.080;9.476;2024-01-10T15:19:34;0.90;99.90
42479;DHT22;28110;47.080;9.476;2024-01-10T15:22:00;0.90;99.90
42479;DHT22;28110;47.080;9.476;2024-01-10T15:24:27;0.90;99.90
42479;DHT22;28110;47.080;9.476;2024-01-10T15:26:52;0.90;99.90
42479;DHT22;28110;47.080;9.476;2024-01-10T15:29:18;0.90;99.90
42479;DHT22;28110;47.080;9.476;2024-01-10T15:31:44;0.80;99.90
42479;DHT22;28110;47.080;9.476;2024-01-10T15:34:10;0.80;99.90
42479;DHT22;28110;47.080;9.476;2024-01-10T15:36:42;0.80;99.90
42479;DHT22;28110;47.080;9.476;2024-01-10T15:39:07;0.70;99.90
42479;DHT22;28110;47.080;9.476;2024-01-10T15:41:33;0.70;99.90
42479;DHT22;28110;47.080;9.476;2024-01-10T15:43:59;0.70;99.90